Latest Weather Observations for Hobart Airport

IDT60901

Issued at 2:51 pm EST Sunday 24 July 2016 (issued every 10 minutes, with the page automatically refreshed every 10 minutes)

About weather observations | Map of Hobart area stations | Latest observations for Hobart area | Other Formats
Station Details ID: 094008 Name: HOBART AIRPORT Lat: -42.83 Lon: 147.50 Height: 4.0 m
Data from the previous 72 hours. | See also: Recent months at Hobart Airport
Date/Time
EST
Temp
°C
App
Temp
°C
Dew
Point
°C
Rel
Hum
%
Delta-T
°C
Wind Press
QNH
hPa
Press
MSL
hPa
Rain since
9am
mm
Dir  Spd
km/h
Gust
km/h
Spd
kts
Gust
kts
24/02:30pm 9.5 4.3 0.1 52 3.8 NW 17 24 9 13 1003.0 1003.0 0.0
24/02:00pm 9.9 4.8 0.6 52 3.8 NW 17 24 9 13 1002.9 1002.9 0.0
24/01:30pm 9.3 4.2 0.7 55 3.5 NNW 17 26 9 14 1003.2 1003.2 0.0
24/01:00pm 9.2 3.2 1.2 57 3.3 NW 22 30 12 16 1003.7 1003.7 0.0
24/12:30pm 8.8 2.4 1.0 58 3.2 NW 24 30 13 16 1004.2 1004.2 0.0
24/12:00pm 8.7 3.0 0.5 56 3.3 NW 20 33 11 18 1004.6 1004.6 0.0
24/11:30am 7.9 2.5 1.0 61 2.8 NNW 19 30 10 16 1004.7 1004.7 0.0
24/11:00am 7.2 2.9 1.0 65 2.5 NNW 13 19 7 10 1005.1 1005.1 0.0
24/10:30am 6.5 1.8 0.7 66 2.3 NNW 15 22 8 12 1005.2 1005.2 0.0
24/10:00am 6.0 1.3 1.0 70 2.0 NNW 15 22 8 12 1005.2 1005.2 0.0
24/09:30am 4.7 -0.9 0.0 71 1.8 NNW 19 26 10 14 1005.1 1005.1 0.0
24/09:00am 4.3 -0.5 0.1 74 1.6 NNW 15 20 8 11 1005.4 1005.4 1.8
24/08:30am 3.8 -0.7 -0.2 75 1.5 NNW 13 19 7 10 1005.5 1005.5 1.8
24/08:00am 2.8 -1.7 -0.5 79 1.2 NNW 13 17 7 9 1005.3 1005.3 1.8
24/07:30am 3.9 -0.7 -1.0 70 1.8 NNW 13 19 7 10 1005.1 1005.1 1.8
24/07:00am 4.2 -2.1 -0.9 69 1.9 NW 22 30 12 16 1004.7 1004.7 1.8
24/06:30am 4.3 -2.7 -0.8 69 1.9 NNW 26 33 14 18 1004.5 1004.5 1.8
24/06:00am 3.7 0.3 -0.6 73 1.6 W 7 9 4 5 1004.5 1004.5 1.8
24/05:30am 3.3 -1.6 -0.5 76 1.4 N 15 24 8 13 1004.4 1004.4 1.8
24/05:00am 4.0 -2.4 -1.5 67 2.0 NNW 22 32 12 17 1004.2 1004.2 1.8
24/04:30am 4.1 -2.3 -1.4 67 2.0 NNW 22 32 12 17 1004.3 1004.3 1.8
24/04:00am 4.5 -2.2 -1.2 66 2.1 NNW 24 33 13 18 1004.1 1004.1 1.8
24/03:30am 4.5 -3.0 -1.5 65 2.2 NW 28 35 15 19 1003.7 1003.7 1.8
24/03:00am 4.3 -2.1 -1.8 64 2.2 WNW 22 32 12 17 1003.9 1003.9 1.8
24/02:30am 3.7 -3.4 -1.5 69 1.9 NW 26 37 14 20 1004.1 1004.1 1.8
24/02:00am 4.5 -2.0 -2.5 60 2.5 NW 22 33 12 18 1004.1 1004.1 1.8
24/01:30am 4.6 -0.9 -2.4 60 2.5 NNW 17 24 9 13 1004.1 1004.1 1.8
24/01:00am 4.3 -1.1 -1.4 66 2.1 NW 17 20 9 11 1004.0 1004.0 1.8
24/12:30am 3.9 -1.6 -1.9 66 2.1 NNW 17 22 9 12 1003.9 1003.9 1.8
24/12:00am 4.1 -1.8 -2.0 64 2.2 NNW 19 30 10 16 1003.8 1003.8 1.8
 
Date/Time
EST
Temp
°C
App
Temp
°C
Dew
Point
°C
Rel
Hum
%
Delta-T
°C
Wind Press
QNH
hPa
Press
MSL
hPa
Rain since
9am
mm
Dir  Spd
km/h
Gust
km/h
Spd
kts
Gust
kts
23/11:30pm 3.9 -2.1 -1.3 69 1.9 NNW 20 30 11 16 1003.5 1003.5 1.8
23/11:00pm 3.6 -1.8 -1.0 72 1.7 NNW 17 24 9 13 1003.2 1003.2 1.8
23/10:30pm 3.6 -0.3 -1.7 68 1.9 NW 9 15 5 8 1003.4 1003.4 1.8
23/10:00pm 3.3 -0.8 -0.5 76 1.4 NNW 11 17 6 9 1003.1 1003.1 1.8
23/09:30pm 3.0 -3.3 -1.1 74 1.5 W 22 30 12 16 1002.2 1002.2 1.8
23/09:00pm 3.6 -4.8 -1.0 72 1.7 WSW 33 44 18 24 1001.7 1001.7 1.8
23/08:30pm 3.4 -4.8 -1.3 71 1.7 WSW 32 50 17 27 1001.4 1001.4 1.8
23/08:01pm 5.0 -3.9 -5.1 48 3.4 WSW 33 52 18 28 1000.3 1000.3 1.8
23/08:00pm 5.1 -3.6 -5.3 47 3.5 WSW 32 48 17 26 1000.3 1000.3 1.8
23/07:30pm 4.4 -6.2 -3.3 57 2.7 WSW 43 61 23 33 999.5 999.5 1.8
23/07:20pm 3.9 -4.5 -2.2 64 2.2 W 32 61 17 33 999.5 999.5 1.8
23/07:00pm 3.6 -3.9 -1.6 69 1.9 WSW 28 35 15 19 999.1 999.1 1.8
23/06:30pm 3.9 -3.6 -1.3 69 1.9 WSW 28 41 15 22 998.8 998.8 1.8
23/06:00pm 3.4 -4.9 -0.6 75 1.5 WSW 33 48 18 26 998.1 998.1 1.4
23/05:30pm 2.8 -4.5 -0.1 81 1.1 W 28 41 15 22 996.9 997.0 1.4
23/05:19pm 2.8 -5.4 0.4 84 0.9 W 33 57 18 31 996.8 996.9 1.4
23/05:12pm 3.6 -3.0 -0.4 75 1.5 W 24 57 13 31 996.8 996.9 1.2
23/05:00pm 3.6 -1.3 -0.4 75 1.5 WSW 15 24 8 13 996.7 996.8 1.0
23/04:30pm 3.9 -3.5 -0.6 72 1.7 W 28 41 15 22 995.6 995.7 1.0
23/04:00pm 3.7 -3.6 0.0 77 1.4 W 28 39 15 21 994.7 994.8 1.0
23/03:30pm 3.4 -4.7 1.1 85 0.9 WSW 33 43 18 23 993.9 994.0 1.0
23/03:20pm 3.6 -4.9 1.0 83 1.0 W 35 50 19 27 993.0 993.1 0.8
23/03:06pm 5.9 -2.5 -2.3 55 3.0 WSW 32 50 17 27 993.1 993.2 0.6
23/03:00pm 6.1 -1.9 -2.0 56 3.0 WSW 30 50 16 27 992.7 992.8 0.6
23/02:30pm 5.1 0.3 0.5 72 1.8 W 15 22 8 12 991.8 991.9 0.6
23/02:00pm 4.0 -3.2 0.4 77 1.4 WSW 28 35 15 19 991.4 991.5 0.6
23/01:30pm 5.7 -1.5 -2.2 57 2.9 SW 26 48 14 26 990.7 990.8 0.6
23/01:00pm 6.2 0.7 0.7 68 2.2 SW 19 28 10 15 989.9 990.0 0.6
23/12:30pm 4.3 -1.2 0.7 77 1.4 WSW 19 28 10 15 990.0 990.1 0.6
23/12:00pm 3.6 -4.5 0.8 82 1.1 WNW 33 52 18 28 989.9 990.0 0.2
23/11:30am 4.0 -4.7 -0.5 72 1.7 WSW 35 48 19 26 989.4 989.5 0.2
23/11:00am 5.6 0.1 -2.0 58 2.8 NW 17 33 9 18 989.1 989.2 0.0
23/10:30am 4.5 -1.6 0.7 76 1.5 WNW 22 30 12 16 989.0 989.1 0.0
23/10:13am 4.1 -3.9 0.2 76 1.5 WNW 32 50 17 27 988.7 988.8 0.0
23/10:09am 4.0 -4.1 -0.5 72 1.7 NW 32 50 17 27 988.7 988.8 0.0
23/10:05am 3.9 -3.4 0.3 77 1.4 NW 28 48 15 26 988.9 989.0 0.0
23/10:00am 4.0 -2.4 0.7 79 1.3 NW 24 33 13 18 988.7 988.8 0.0
23/09:30am 3.2 -4.5 0.0 79 1.2 WNW 30 43 16 23 987.6 987.7 0.0
23/09:00am 4.9 -0.7 -0.3 69 2.0 WNW 19 26 10 14 987.7 987.8 3.6
23/08:30am 5.1 -2.7 -1.0 65 2.3 NW 30 37 16 20 986.8 986.9 3.6
23/08:00am 3.9 -0.1 0.8 80 1.2 W 11 15 6 8 986.2 986.3 3.6
23/07:30am 5.1 -2.2 -0.1 69 2.0 W 28 35 15 19 986.3 986.4 3.6
23/07:00am 5.4 0.5 -0.3 67 2.2 NNW 15 24 8 13 985.4 985.5 3.6
23/06:30am 5.4 1.4 0.3 69 2.0 WNW 11 19 6 10 984.6 984.7 3.6
23/06:00am 5.9 -0.9 0.6 69 2.1 WNW 26 37 14 20 984.5 984.6 3.6
23/05:30am 6.1 -1.5 0.3 66 2.3 WNW 30 37 16 20 983.3 983.4 3.6
23/05:00am 6.1 0.9 0.3 66 2.3 NW 17 26 9 14 983.2 983.3 3.6
23/04:30am 6.4 1.3 0.7 67 2.2 NNW 17 24 9 13 982.9 982.9 3.6
23/04:00am 6.3 0.8 0.8 68 2.2 NNW 19 30 10 16 983.0 983.1 3.6
23/03:30am 6.5 0.9 0.2 64 2.5 NNW 19 28 10 15 982.8 982.8 3.6
23/03:00am 5.7 0.5 0.1 67 2.2 NNW 17 24 9 13 983.2 983.3 3.6
23/02:30am 5.7 1.0 0.7 70 2.0 NNW 15 22 8 12 983.6 983.7 3.6
23/02:00am 6.2 0.5 0.4 66 2.3 NW 20 28 11 15 983.9 984.0 3.6
23/01:30am 6.7 2.2 -0.2 61 2.7 NNW 13 22 7 12 984.2 984.3 3.6
23/01:00am 5.6 0.8 0.5 70 2.0 NNW 15 24 8 13 985.0 985.1 3.6
23/12:30am 6.7 1.4 -0.5 60 2.8 NNW 17 26 9 14 985.4 985.5 3.6
23/12:00am 6.4 1.9 -0.3 62 2.6 N 13 20 7 11 985.5 985.6 3.6
 
Date/Time
EST
Temp
°C
App
Temp
°C
Dew
Point
°C
Rel
Hum
%
Delta-T
°C
Wind Press
QNH
hPa
Press
MSL
hPa
Rain since
9am
mm
Dir  Spd
km/h
Gust
km/h
Spd
kts
Gust
kts
22/11:30pm 6.6 1.3 -0.3 61 2.7 N 17 26 9 14 985.7 985.8 3.6
22/11:00pm 6.1 1.8 0.9 69 2.1 N 13 19 7 10 985.6 985.7 3.6
22/10:30pm 6.5 2.5 0.2 64 2.5 NNW 11 17 6 9 985.5 985.6 3.6
22/10:00pm 7.1 1.0 0.3 62 2.7 W 22 28 12 15 985.7 985.8 3.6
22/09:30pm 7.2 1.1 0.5 62 2.6 WNW 22 30 12 16 986.0 986.1 3.6
22/09:00pm 7.8 2.0 0.0 58 3.1 WNW 20 28 11 15 986.4 986.5 3.6
22/08:30pm 8.2 0.8 -0.4 54 3.4 WNW 28 39 15 21 986.0 986.1 3.6
22/08:00pm 8.2 0.9 0.3 57 3.2 WNW 28 43 15 23 985.2 985.3 3.6
22/07:30pm 8.8 0.2 -0.1 53 3.5 WNW 35 46 19 25 984.5 984.6 3.6
22/07:00pm 8.8 0.9 0.8 57 3.3 W 32 41 17 22 984.2 984.3 3.6
22/06:30pm 8.3 1.6 3.5 72 2.1 NW 28 39 15 21 983.7 983.8 3.6
22/06:00pm 8.4 1.6 3.3 70 2.2 WNW 28 44 15 24 983.4 983.5 3.6
22/05:30pm 8.8 0.0 3.6 70 2.2 WNW 39 70 21 38 982.7 982.7 2.8
22/05:21pm 9.2 1.7 3.3 66 2.5 WNW 32 54 17 29 982.5 982.5 2.4
22/05:00pm 8.8 -0.9 3.8 71 2.2 W 44 59 24 32 981.2 981.2 2.2
22/04:48pm 9.6 0.5 3.8 67 2.5 WNW 41 72 22 39 980.7 980.7 1.6
22/04:30pm 10.7 0.8 2.5 57 3.5 WNW 44 56 24 30 979.3 979.3 1.4
22/04:22pm 10.9 2.2 2.2 55 3.7 WNW 37 56 20 30 978.8 978.8 1.4
22/04:00pm 11.2 3.3 4.4 63 3.1 WNW 35 50 19 27 979.5 979.5 1.4
22/03:39pm 11.8 5.0 5.2 64 3.0 WNW 30 52 16 28 979.4 979.4 1.2
22/03:30pm 11.7 5.9 6.3 69 2.5 NW 26 44 14 24 979.2 979.2 1.2
22/03:00pm 11.5 6.6 6.7 72 2.3 NNW 22 35 12 19 978.6 978.6 1.2
22/02:30pm 12.2 6.9 6.9 70 2.5 NNW 24 35 13 19 978.6 978.6 0.6
22/02:00pm 11.9 4.0 6.0 67 2.8 NW 37 57 20 31 978.7 978.7 0.6
22/01:30pm 13.7 5.6 5.1 56 4.0 NW 37 59 20 32 979.2 979.2 0.0
22/01:00pm 15.0 7.1 4.4 49 5.0 NW 35 56 19 30 979.1 979.1 0.0
22/12:39pm 14.8 7.3 4.4 49 4.8 NW 33 54 18 29 979.7 979.7 0.0
22/12:30pm 15.1 8.0 3.4 45 5.3 NNW 30 46 16 25 979.9 979.9 0.0
22/12:15pm 14.6 7.3 4.7 51 4.6 NNW 32 50 17 27 980.0 980.0 0.0
22/12:00pm 14.6 7.0 4.1 49 4.9 NNW 33 46 18 25 980.4 980.4 0.0
22/11:36am 14.7 7.5 4.8 51 4.6 NNW 32 52 17 28 981.4 981.4 0.0
22/11:30am 14.4 7.4 6.0 57 4.0 NNW 32 48 17 26 981.7 981.7 0.0
22/11:00am 14.6 7.2 4.9 52 4.6 NNW 33 50 18 27 982.5 982.5 0.0
22/10:30am 14.7 6.3 5.6 54 4.3 NW 39 63 21 34 983.2 983.3 0.0
22/10:28am 14.7 7.1 5.8 55 4.2 NW 35 63 19 34 983.2 983.3 0.0
22/10:00am 14.7 6.9 6.6 58 4.0 NW 37 54 20 29 983.8 983.9 0.0
22/09:34am 14.5 8.6 7.3 62 3.5 NW 28 46 15 25 984.0 984.1 0.0
22/09:30am 14.1 8.5 7.3 63 3.3 NW 26 37 14 20 984.0 984.1 0.0
22/09:00am 13.8 9.5 7.8 67 3.0 NW 20 35 11 19 984.2 984.3 8.0
22/08:30am 13.5 9.3 8.4 71 2.5 NW 20 32 11 17 984.3 984.4 8.0
22/08:00am 12.4 9.1 9.7 83 1.4 NNW 17 22 9 12 984.3 984.4 8.0
22/07:30am 12.9 8.3 9.8 81 1.6 N 24 32 13 17 984.2 984.3 8.0
22/07:00am 11.9 8.4 10.2 89 0.9 NNW 19 26 10 14 984.5 984.6 8.0
22/06:30am 12.9 8.7 9.8 81 1.6 N 22 32 12 17 984.9 985.0 7.6
22/06:00am 12.6 7.3 9.7 82 1.5 N 28 39 15 21 985.1 985.2 7.6
22/05:45am 12.0 7.1 10.1 88 1.0 N 26 35 14 19 985.4 985.5 7.4
22/05:30am 12.5 7.2 9.8 83 1.4 N 28 37 15 20 986.2 986.3 7.0
22/05:13am 12.4 6.7 9.9 85 1.3 N 30 50 16 27 986.5 986.6 5.6
22/05:00am 12.7 7.3 9.6 81 1.6 NNW 28 39 15 21 986.7 986.8 5.2
22/04:30am 11.9 7.1 8.7 81 1.6 NNW 24 35 13 19 988.2 988.3 4.2
22/04:08am 11.1 6.4 9.3 89 0.9 NNW 24 33 13 18 990.1 990.2 3.8
22/04:00am 10.6 5.9 9.2 91 0.7 NNW 24 32 13 17 989.9 990.0 3.6
22/03:30am 11.5 6.0 9.3 86 1.1 N 28 39 15 21 990.9 991.0 3.0
22/03:18am 11.6 6.2 9.4 86 1.1 N 28 37 15 20 991.8 991.9 2.6
22/03:00am 11.2 5.7 9.2 87 1.0 N 28 39 15 21 993.1 993.2 1.2
22/02:30am 10.8 6.9 8.6 86 1.1 NNW 19 26 10 14 994.9 995.0 0.2
22/02:00am 11.3 6.3 8.1 81 1.6 N 24 35 13 19 995.1 995.2 0.2
22/01:30am 10.7 6.7 6.5 75 2.0 NNW 17 22 9 12 996.5 996.6 0.0
22/01:00am 8.9 6.4 6.5 85 1.1 WNW 9 9 5 5 997.3 997.3 0.0
22/12:30am 8.5 5.6 6.3 86 1.0 N 11 15 6 8 998.0 998.0 0.0
22/12:00am 9.2 6.2 6.2 81 1.4 N 11 20 6 11 999.5 999.5 0.0
 
Date/Time
EST
Temp
°C
App
Temp
°C
Dew
Point
°C
Rel
Hum
%
Delta-T
°C
Wind Press
QNH
hPa
Press
MSL
hPa
Rain since
9am
mm
Dir  Spd
km/h
Gust
km/h
Spd
kts
Gust
kts
21/11:30pm 9.5 5.0 6.0 79 1.6 NNW 19 28 10 15 1000.6 1000.6 0.0
21/11:00pm 9.5 4.1 6.3 80 1.5 NNW 24 33 13 18 1001.2 1001.2 0.0
21/10:30pm 9.4 4.7 5.9 79 1.6 NNW 20 32 11 17 1001.3 1001.3 0.0
21/10:00pm 8.8 5.6 5.3 79 1.6 NNW 11 17 6 9 1002.5 1002.5 0.0
21/09:30pm 7.3 4.0 4.8 84 1.1 NW 11 17 6 9 1003.3 1003.3 0.0
21/09:00pm 8.2 5.3 4.6 78 1.6 W 9 13 5 7 1003.7 1003.7 0.0
21/08:30pm 8.9 5.7 5.1 77 1.7 NW 11 15 6 8 1004.1 1004.1 0.0
21/08:00pm 9.3 6.9 5.1 75 1.9 WSW 7 9 4 5 1004.7 1004.7 0.0
21/07:30pm 9.9 7.4 4.8 70 2.3 NNE 7 13 4 7 1005.4 1005.4 0.0
21/07:00pm 9.9 6.3 5.1 72 2.2 N 13 17 7 9 1005.6 1005.6 0.0
21/06:30pm 10.7 5.7 4.7 66 2.7 N 20 32 11 17 1005.8 1005.8 0.0
21/06:00pm 10.9 5.1 4.5 64 2.9 N 24 33 13 18 1005.8 1005.8 0.0
21/05:30pm 11.1 5.9 3.7 60 3.3 N 20 30 11 16 1006.5 1006.5 0.0
21/05:00pm 10.6 7.4 4.9 68 2.6 N 11 17 6 9 1007.1 1007.1 0.0
21/04:30pm 10.6 6.7 5.4 70 2.4 N 15 19 8 10 1007.6 1007.6 0.0
21/04:00pm 11.1 6.7 4.7 64 2.9 N 17 26 9 14 1008.0 1008.0 0.0
21/03:30pm 11.2 6.4 4.6 64 3.0 N 19 28 10 15 1008.4 1008.4 0.0
21/03:00pm 12.3 7.7 3.6 55 3.9 N 17 26 9 14 1008.6 1008.6 0.0

Latest Capital City Observations: Canberra | Sydney | Melbourne | Brisbane | Adelaide | Perth | Hobart | Darwin

Other Formats:

Comma delimited format used in spreadsheet applications
http://www.bom.gov.au/fwo/IDT60901/IDT60901.94975.axf

JavaScript Object Notation format (JSON) in row-major order
http://www.bom.gov.au/fwo/IDT60901/IDT60901.94975.json